sensor_id;sensor_type;location;lat;lon;timestamp;pressure;altitude;pressure_sealevel;temperature
67829;BMP280;54626;45.436;10.942;2023-07-24T00:05:58;100466.06;;;24.26
67829;BMP280;54626;45.436;10.942;2023-07-24T00:08:25;100461.34;;;24.30
67829;BMP280;54626;45.436;10.942;2023-07-24T00:10:52;100464.91;;;24.31
67829;BMP280;54626;45.436;10.942;2023-07-24T00:13:25;100459.13;;;24.29
67829;BMP280;54626;45.436;10.942;2023-07-24T00:15:51;100458.88;;;24.23
67829;BMP280;54626;45.436;10.942;2023-07-24T00:20:53;100451.31;;;24.12
67829;BMP280;54626;45.436;10.942;2023-07-24T00:30:31;100436.34;;;24.25
67829;BMP280;54626;45.436;10.942;2023-07-24T00:32:57;100428.59;;;24.25
67829;BMP280;54626;45.436;10.942;2023-07-24T00:35:31;100426.31;;;24.22
67829;BMP280;54626;45.436;10.942;2023-07-24T00:40:32;100428.16;;;24.15
67829;BMP280;54626;45.436;10.942;2023-07-24T00:46:39;100422.59;;;24.02
67829;BMP280;54626;45.436;10.942;2023-07-24T00:49:07;100423.34;;;24.02
67829;BMP280;54626;45.436;10.942;2023-07-24T00:51:34;100424.81;;;24.03
67829;BMP280;54626;45.436;10.942;2023-07-24T00:54:02;100418.75;;;24.11
67829;BMP280;54626;45.436;10.942;2023-07-24T00:56:30;100419.84;;;24.04
67829;BMP280;54626;45.436;10.942;2023-07-24T00:58:59;100415.97;;;23.95
67829;BMP280;54626;45.436;10.942;2023-07-24T01:01:28;100413.56;;;23.90
67829;BMP280;54626;45.436;10.942;2023-07-24T01:03:57;100423.44;;;23.89
67829;BMP280;54626;45.436;10.942;2023-07-24T01:06:23;100418.25;;;23.83
67829;BMP280;54626;45.436;10.942;2023-07-24T01:08:50;100410.50;;;23.84
67829;BMP280;54626;45.436;10.942;2023-07-24T01:11:23;100406.19;;;23.83
67829;BMP280;54626;45.436;10.942;2023-07-24T01:13:58;100406.19;;;23.83
67829;BMP280;54626;45.436;10.942;2023-07-24T01:16:33;100408.88;;;23.79
67829;BMP280;54626;45.436;10.942;2023-07-24T01:19:04;100413.97;;;23.83
67829;BMP280;54626;45.436;10.942;2023-07-24T01:27:27;100405.94;;;23.77
67829;BMP280;54626;45.436;10.942;2023-07-24T01:29:54;100403.22;;;23.79
67829;BMP280;54626;45.436;10.942;2023-07-24T01:32:20;100399.09;;;23.82
67829;BMP280;54626;45.436;10.942;2023-07-24T01:34:47;100396.09;;;23.78
67829;BMP280;54626;45.436;10.942;2023-07-24T01:37:15;100398.75;;;23.74
67829;BMP280;54626;45.436;10.942;2023-07-24T01:39:44;100402.84;;;23.71
67829;BMP280;54626;45.436;10.942;2023-07-24T01:42:12;100392.19;;;23.70
67829;BMP280;54626;45.436;10.942;2023-07-24T01:44:39;100398.47;;;23.68
67829;BMP280;54626;45.436;10.942;2023-07-24T01:47:06;100390.56;;;23.65
67829;BMP280;54626;45.436;10.942;2023-07-24T01:49:33;100391.28;;;23.65
67829;BMP280;54626;45.436;10.942;2023-07-24T01:51:59;100380.63;;;23.64
67829;BMP280;54626;45.436;10.942;2023-07-24T01:54:26;100379.16;;;23.63
67829;BMP280;54626;45.436;10.942;2023-07-24T01:56:52;100383.97;;;23.60
67829;BMP280;54626;45.436;10.942;2023-07-24T01:59:19;100380.97;;;23.56
67829;BMP280;54626;45.436;10.942;2023-07-24T02:01:47;100389.44;;;23.56
67829;BMP280;54626;45.436;10.942;2023-07-24T02:04:14;100384.88;;;23.49
67829;BMP280;54626;45.436;10.942;2023-07-24T02:06:41;100389.06;;;23.48
67829;BMP280;54626;45.436;10.942;2023-07-24T02:09:07;100401.03;;;23.47
67829;BMP280;54626;45.436;10.942;2023-07-24T02:11:34;100401.53;;;23.43
67829;BMP280;54626;45.436;10.942;2023-07-24T02:14:01;100397.25;;;23.42
67829;BMP280;54626;45.436;10.942;2023-07-24T02:16:27;100394.25;;;23.38
67829;BMP280;54626;45.436;10.942;2023-07-24T02:18:55;100392.63;;;23.33
67829;BMP280;54626;45.436;10.942;2023-07-24T02:21:21;100396.06;;;23.32
67829;BMP280;54626;45.436;10.942;2023-07-24T02:23:49;100393.44;;;23.36
67829;BMP280;54626;45.436;10.942;2023-07-24T02:26:15;100389.06;;;23.33
67829;BMP280;54626;45.436;10.942;2023-07-24T02:28:41;100380.50;;;23.31
67829;BMP280;54626;45.436;10.942;2023-07-24T02:31:08;100367.47;;;23.24
67829;BMP280;54626;45.436;10.942;2023-07-24T02:33:35;100355.25;;;23.20
67829;BMP280;54626;45.436;10.942;2023-07-24T02:36:02;100346.06;;;23.19
67829;BMP280;54626;45.436;10.942;2023-07-24T02:38:28;100342.69;;;23.23
67829;BMP280;54626;45.436;10.942;2023-07-24T02:40:55;100336.31;;;23.22
67829;BMP280;54626;45.436;10.942;2023-07-24T02:43:22;100334.97;;;23.23
67829;BMP280;54626;45.436;10.942;2023-07-24T02:45:49;100320.09;;;23.23
67829;BMP280;54626;45.436;10.942;2023-07-24T02:48:15;100311.00;;;23.24
67829;BMP280;54626;45.436;10.942;2023-07-24T02:50:42;100303.38;;;23.27
67829;BMP280;54626;45.436;10.942;2023-07-24T02:53:08;100300.00;;;23.30
67829;BMP280;54626;45.436;10.942;2023-07-24T02:55:35;100305.47;;;23.26
67829;BMP280;54626;45.436;10.942;2023-07-24T02:58:08;100294.25;;;23.28
67829;BMP280;54626;45.436;10.942;2023-07-24T03:01:06;100286.81;;;23.19
67829;BMP280;54626;45.436;10.942;2023-07-24T03:03:34;100284.50;;;23.16
67829;BMP280;54626;45.436;10.942;2023-07-24T03:06:02;100290.03;;;23.14
67829;BMP280;54626;45.436;10.942;2023-07-24T03:08:29;100289.84;;;23.10
67829;BMP280;54626;45.436;10.942;2023-07-24T03:10:55;100286.22;;;23.07
67829;BMP280;54626;45.436;10.942;2023-07-24T03:13:22;100294.31;;;22.99
67829;BMP280;54626;45.436;10.942;2023-07-24T03:16:04;100283.50;;;23.09
67829;BMP280;54626;45.436;10.942;2023-07-24T03:18:30;100282.47;;;23.03
67829;BMP280;54626;45.436;10.942;2023-07-24T03:20:58;100280.53;;;22.92
67829;BMP280;54626;45.436;10.942;2023-07-24T03:23:25;100292.78;;;22.96
67829;BMP280;54626;45.436;10.942;2023-07-24T03:26:04;100295.88;;;23.02
67829;BMP280;54626;45.436;10.942;2023-07-24T03:28:42;100288.69;;;22.99
67829;BMP280;54626;45.436;10.942;2023-07-24T03:31:09;100290.75;;;22.99
67829;BMP280;54626;45.436;10.942;2023-07-24T03:33:36;100299.97;;;22.99
67829;BMP280;54626;45.436;10.942;2023-07-24T03:36:02;100297.19;;;22.86
67829;BMP280;54626;45.436;10.942;2023-07-24T03:38:30;100303.88;;;22.92
67829;BMP280;54626;45.436;10.942;2023-07-24T03:40:56;100313.59;;;22.89
67829;BMP280;54626;45.436;10.942;2023-07-24T03:49:34;100326.09;;;22.71
67829;BMP280;54626;45.436;10.942;2023-07-24T03:52:00;100332.34;;;22.70
67829;BMP280;54626;45.436;10.942;2023-07-24T03:54:27;100343.00;;;22.71
67829;BMP280;54626;45.436;10.942;2023-07-24T03:56:56;100341.94;;;22.78
67829;BMP280;54626;45.436;10.942;2023-07-24T03:59:37;100337.44;;;22.73
67829;BMP280;54626;45.436;10.942;2023-07-24T04:02:04;100340.50;;;22.64
67829;BMP280;54626;45.436;10.942;2023-07-24T04:04:37;100348.56;;;22.69
67829;BMP280;54626;45.436;10.942;2023-07-24T04:07:04;100357.59;;;22.81
67829;BMP280;54626;45.436;10.942;2023-07-24T04:09:31;100348.69;;;22.86
67829;BMP280;54626;45.436;10.942;2023-07-24T04:11:58;100336.56;;;22.84
67829;BMP280;54626;45.436;10.942;2023-07-24T04:14:24;100340.03;;;22.82
67829;BMP280;54626;45.436;10.942;2023-07-24T04:16:51;100337.84;;;22.94
67829;BMP280;54626;45.436;10.942;2023-07-24T04:19:19;100345.03;;;22.97
67829;BMP280;54626;45.436;10.942;2023-07-24T04:22:07;100350.66;;;22.97
67829;BMP280;54626;45.436;10.942;2023-07-24T04:24:34;100348.38;;;22.94
67829;BMP280;54626;45.436;10.942;2023-07-24T04:27:00;100356.03;;;23.07
67829;BMP280;54626;45.436;10.942;2023-07-24T04:29:27;100356.50;;;23.17
67829;BMP280;54626;45.436;10.942;2023-07-24T04:31:53;100360.47;;;23.25
67829;BMP280;54626;45.436;10.942;2023-07-24T04:37:10;100366.03;;;23.23
67829;BMP280;54626;45.436;10.942;2023-07-24T04:39:40;100360.38;;;23.23
67829;BMP280;54626;45.436;10.942;2023-07-24T04:42:06;100369.25;;;23.18
67829;BMP280;54626;45.436;10.942;2023-07-24T04:44:33;100361.97;;;23.13
67829;BMP280;54626;45.436;10.942;2023-07-24T04:46:59;100370.53;;;23.15
67829;BMP280;54626;45.436;10.942;2023-07-24T04:49:31;100379.47;;;23.25
67829;BMP280;54626;45.436;10.942;2023-07-24T04:51:59;100394.25;;;23.23
67829;BMP280;54626;45.436;10.942;2023-07-24T04:54:25;100412.75;;;23.26
67829;BMP280;54626;45.436;10.942;2023-07-24T04:56:52;100412.84;;;23.43
67829;BMP280;54626;45.436;10.942;2023-07-24T04:59:18;100412.13;;;23.58
67829;BMP280;54626;45.436;10.942;2023-07-24T05:01:45;100426.00;;;23.68
67829;BMP280;54626;45.436;10.942;2023-07-24T05:04:11;100443.03;;;23.85
67829;BMP280;54626;45.436;10.942;2023-07-24T05:06:38;100448.59;;;23.83
67829;BMP280;54626;45.436;10.942;2023-07-24T05:09:04;100455.88;;;23.88
67829;BMP280;54626;45.436;10.942;2023-07-24T05:11:32;100463.19;;;23.93
67829;BMP280;54626;45.436;10.942;2023-07-24T05:13:59;100436.78;;;23.86
67829;BMP280;54626;45.436;10.942;2023-07-24T05:16:28;100393.78;;;23.90
67829;BMP280;54626;45.436;10.942;2023-07-24T05:18:56;100346.44;;;23.88
67829;BMP280;54626;45.436;10.942;2023-07-24T05:21:23;100278.38;;;23.83
67829;BMP280;54626;45.436;10.942;2023-07-24T05:24:02;100282.53;;;23.82
67829;BMP280;54626;45.436;10.942;2023-07-24T05:27:00;100353.22;;;23.99
67829;BMP280;54626;45.436;10.942;2023-07-24T05:29:26;100346.81;;;24.14
67829;BMP280;54626;45.436;10.942;2023-07-24T05:31:53;100341.75;;;24.28
67829;BMP280;54626;45.436;10.942;2023-07-24T05:37:41;100326.81;;;24.42
67829;BMP280;54626;45.436;10.942;2023-07-24T05:40:14;100340.78;;;24.38
67829;BMP280;54626;45.436;10.942;2023-07-24T05:43:10;100322.88;;;24.49
67829;BMP280;54626;45.436;10.942;2023-07-24T05:48:20;100328.53;;;24.49
67829;BMP280;54626;45.436;10.942;2023-07-24T05:50:51;100361.50;;;24.43
67829;BMP280;54626;45.436;10.942;2023-07-24T05:53:18;100371.72;;;24.67
67829;BMP280;54626;45.436;10.942;2023-07-24T05:56:09;100364.75;;;24.70
67829;BMP280;54626;45.436;10.942;2023-07-24T05:58:36;100354.03;;;24.67
67829;BMP280;54626;45.436;10.942;2023-07-24T06:01:03;100328.38;;;24.80
67829;BMP280;54626;45.436;10.942;2023-07-24T06:03:32;100313.81;;;24.88
67829;BMP280;54626;45.436;10.942;2023-07-24T06:08:51;100291.59;;;25.17
67829;BMP280;54626;45.436;10.942;2023-07-24T06:11:19;100254.38;;;25.24
67829;BMP280;54626;45.436;10.942;2023-07-24T06:13:49;100242.16;;;25.39
67829;BMP280;54626;45.436;10.942;2023-07-24T06:22:41;100231.91;;;25.90
67829;BMP280;54626;45.436;10.942;2023-07-24T06:25:08;100229.44;;;25.81
67829;BMP280;54626;45.436;10.942;2023-07-24T06:27:35;100244.88;;;25.76
67829;BMP280;54626;45.436;10.942;2023-07-24T06:33:20;100226.31;;;25.51
67829;BMP280;54626;45.436;10.942;2023-07-24T06:35:51;100250.28;;;25.48
67829;BMP280;54626;45.436;10.942;2023-07-24T06:38:18;100265.44;;;25.57
67829;BMP280;54626;45.436;10.942;2023-07-24T06:40:47;100290.81;;;25.72
67829;BMP280;54626;45.436;10.942;2023-07-24T06:43:14;100295.53;;;25.85
67829;BMP280;54626;45.436;10.942;2023-07-24T06:45:41;100303.13;;;26.00
67829;BMP280;54626;45.436;10.942;2023-07-24T06:51:14;100274.25;;;26.50
67829;BMP280;54626;45.436;10.942;2023-07-24T06:53:40;100252.78;;;26.66
67829;BMP280;54626;45.436;10.942;2023-07-24T06:56:07;100272.41;;;26.58
67829;BMP280;54626;45.436;10.942;2023-07-24T06:58:33;100272.22;;;26.76
67829;BMP280;54626;45.436;10.942;2023-07-24T07:01:05;100270.94;;;26.81
67829;BMP280;54626;45.436;10.942;2023-07-24T07:11:30;100293.44;;;26.96
67829;BMP280;54626;45.436;10.942;2023-07-24T07:13:57;100297.94;;;27.05
67829;BMP280;54626;45.436;10.942;2023-07-24T07:16:23;100299.75;;;27.18
67829;BMP280;54626;45.436;10.942;2023-07-24T07:18:50;100308.38;;;27.47
67829;BMP280;54626;45.436;10.942;2023-07-24T07:21:16;100315.88;;;27.87
67829;BMP280;54626;45.436;10.942;2023-07-24T07:23:44;100320.13;;;28.13
67829;BMP280;54626;45.436;10.942;2023-07-24T07:26:12;100309.25;;;28.06
67829;BMP280;54626;45.436;10.942;2023-07-24T07:28:39;100307.81;;;27.78
67829;BMP280;54626;45.436;10.942;2023-07-24T07:31:05;100336.97;;;27.78
67829;BMP280;54626;45.436;10.942;2023-07-24T07:33:32;100318.31;;;27.71
67829;BMP280;54626;45.436;10.942;2023-07-24T07:35:58;100288.31;;;27.66
67829;BMP280;54626;45.436;10.942;2023-07-24T07:42:22;100283.16;;;28.13
67829;BMP280;54626;45.436;10.942;2023-07-24T07:44:49;100264.69;;;28.14
67829;BMP280;54626;45.436;10.942;2023-07-24T07:47:16;100265.88;;;28.34
67829;BMP280;54626;45.436;10.942;2023-07-24T07:49:43;100259.81;;;28.21
67829;BMP280;54626;45.436;10.942;2023-07-24T07:52:10;100260.16;;;28.34
67829;BMP280;54626;45.436;10.942;2023-07-24T07:54:37;100240.38;;;28.40
67829;BMP280;54626;45.436;10.942;2023-07-24T07:57:04;100232.44;;;28.35
67829;BMP280;54626;45.436;10.942;2023-07-24T08:06:58;100176.72;;;29.33
67829;BMP280;54626;45.436;10.942;2023-07-24T08:09:25;100163.03;;;29.24
67829;BMP280;54626;45.436;10.942;2023-07-24T08:12:04;100168.22;;;28.96
67829;BMP280;54626;45.436;10.942;2023-07-24T08:17:07;100147.59;;;28.61
67829;BMP280;54626;45.436;10.942;2023-07-24T08:19:33;100131.09;;;28.55
67829;BMP280;54626;45.436;10.942;2023-07-24T08:22:00;100130.13;;;28.78
67829;BMP280;54626;45.436;10.942;2023-07-24T08:37:50;100228.38;;;29.12
67829;BMP280;54626;45.436;10.942;2023-07-24T08:44:10;100216.25;;;29.14
67829;BMP280;54626;45.436;10.942;2023-07-24T08:46:39;100227.66;;;29.51
67829;BMP280;54626;45.436;10.942;2023-07-24T08:51:47;100240.41;;;29.91
67829;BMP280;54626;45.436;10.942;2023-07-24T08:54:15;100250.50;;;29.96
67829;BMP280;54626;45.436;10.942;2023-07-24T08:56:42;100257.19;;;30.12
67829;BMP280;54626;45.436;10.942;2023-07-24T09:02:12;100254.34;;;30.63
67829;BMP280;54626;45.436;10.942;2023-07-24T09:04:53;100249.44;;;30.73
67829;BMP280;54626;45.436;10.942;2023-07-24T09:07:19;100249.44;;;30.71
67829;BMP280;54626;45.436;10.942;2023-07-24T09:09:47;100250.97;;;30.27
67829;BMP280;54626;45.436;10.942;2023-07-24T09:15:12;100263.47;;;30.05
67829;BMP280;54626;45.436;10.942;2023-07-24T09:17:50;100264.84;;;30.02
67829;BMP280;54626;45.436;10.942;2023-07-24T09:28:41;100327.81;;;31.11
67829;BMP280;54626;45.436;10.942;2023-07-24T09:31:36;100322.94;;;31.22
67829;BMP280;54626;45.436;10.942;2023-07-24T09:37:03;100367.06;;;31.70
67829;BMP280;54626;45.436;10.942;2023-07-24T09:46:45;100407.41;;;31.33
67829;BMP280;54626;45.436;10.942;2023-07-24T09:49:34;100375.25;;;31.34
67829;BMP280;54626;45.436;10.942;2023-07-24T09:52:04;100364.72;;;31.52
67829;BMP280;54626;45.436;10.942;2023-07-24T10:00:44;100292.84;;;31.92
67829;BMP280;54626;45.436;10.942;2023-07-24T10:03:12;100279.19;;;31.88
67829;BMP280;54626;45.436;10.942;2023-07-24T10:05:39;100258.72;;;31.37
67829;BMP280;54626;45.436;10.942;2023-07-24T10:10:55;100176.63;;;31.51
67829;BMP280;54626;45.436;10.942;2023-07-24T10:13:23;100170.28;;;31.64
67829;BMP280;54626;45.436;10.942;2023-07-24T10:15:50;100128.88;;;31.81
67829;BMP280;54626;45.436;10.942;2023-07-24T10:21:10;100135.91;;;31.58
67829;BMP280;54626;45.436;10.942;2023-07-24T10:23:41;100153.81;;;31.63
67829;BMP280;54626;45.436;10.942;2023-07-24T10:26:08;100158.09;;;31.60
67829;BMP280;54626;45.436;10.942;2023-07-24T10:31:22;100142.25;;;31.45
67829;BMP280;54626;45.436;10.942;2023-07-24T10:33:50;100136.34;;;31.21
67829;BMP280;54626;45.436;10.942;2023-07-24T10:36:19;100137.66;;;31.06
67829;BMP280;54626;45.436;10.942;2023-07-24T10:42:10;100142.16;;;30.59
67829;BMP280;54626;45.436;10.942;2023-07-24T10:44:37;100134.22;;;30.51
67829;BMP280;54626;45.436;10.942;2023-07-24T10:47:04;100111.34;;;30.49
67829;BMP280;54626;45.436;10.942;2023-07-24T10:49:30;100094.22;;;30.49
67829;BMP280;54626;45.436;10.942;2023-07-24T10:51:58;100044.28;;;30.52
67829;BMP280;54626;45.436;10.942;2023-07-24T10:54:25;99992.72;;;30.38
67829;BMP280;54626;45.436;10.942;2023-07-24T10:56:58;99950.56;;;30.33
67829;BMP280;54626;45.436;10.942;2023-07-24T10:59:39;100003.66;;;30.63
67829;BMP280;54626;45.436;10.942;2023-07-24T11:02:37;100070.66;;;31.29
67829;BMP280;54626;45.436;10.942;2023-07-24T11:05:03;100103.81;;;31.74
67829;BMP280;54626;45.436;10.942;2023-07-24T11:07:33;100140.47;;;32.09
67829;BMP280;54626;45.436;10.942;2023-07-24T11:10:00;100170.34;;;31.74
67829;BMP280;54626;45.436;10.942;2023-07-24T11:12:27;100184.41;;;31.41
67829;BMP280;54626;45.436;10.942;2023-07-24T11:14:57;100173.94;;;30.92
67829;BMP280;54626;45.436;10.942;2023-07-24T11:20:13;100037.78;;;29.87
67829;BMP280;54626;45.436;10.942;2023-07-24T11:22:49;100014.59;;;29.59
67829;BMP280;54626;45.436;10.942;2023-07-24T11:25:16;100054.53;;;29.59
67829;BMP280;54626;45.436;10.942;2023-07-24T11:27:43;100086.66;;;29.62
67829;BMP280;54626;45.436;10.942;2023-07-24T11:30:11;100077.47;;;29.69
67829;BMP280;54626;45.436;10.942;2023-07-24T11:32:39;100080.03;;;29.49
67829;BMP280;54626;45.436;10.942;2023-07-24T11:35:17;100119.50;;;29.65
67829;BMP280;54626;45.436;10.942;2023-07-24T11:37:45;100139.06;;;29.86
67829;BMP280;54626;45.436;10.942;2023-07-24T11:42:38;100131.41;;;30.53
67829;BMP280;54626;45.436;10.942;2023-07-24T11:45:31;100171.56;;;30.14
67829;BMP280;54626;45.436;10.942;2023-07-24T11:54:34;100224.41;;;29.72
67829;BMP280;54626;45.436;10.942;2023-07-24T11:57:01;100193.25;;;29.86
67829;BMP280;54626;45.436;10.942;2023-07-24T11:59:28;100167.94;;;30.10
67829;BMP280;54626;45.436;10.942;2023-07-24T12:04:57;100128.63;;;31.42
67829;BMP280;54626;45.436;10.942;2023-07-24T12:07:57;100098.22;;;31.97
67829;BMP280;54626;45.436;10.942;2023-07-24T12:10:29;100068.16;;;32.00
67829;BMP280;54626;45.436;10.942;2023-07-24T12:13:31;100046.09;;;32.56
67829;BMP280;54626;45.436;10.942;2023-07-24T12:19:31;99994.47;;;32.23
67829;BMP280;54626;45.436;10.942;2023-07-24T12:21:58;99973.72;;;32.10
67829;BMP280;54626;45.436;10.942;2023-07-24T12:24:38;99953.69;;;32.56
67829;BMP280;54626;45.436;10.942;2023-07-24T12:29:51;99935.75;;;31.98
67829;BMP280;54626;45.436;10.942;2023-07-24T12:39:11;99964.38;;;32.06
67829;BMP280;54626;45.436;10.942;2023-07-24T12:41:38;99972.22;;;31.82
67829;BMP280;54626;45.436;10.942;2023-07-24T12:44:04;99971.88;;;31.10
67829;BMP280;54626;45.436;10.942;2023-07-24T12:46:31;99983.44;;;31.34
67829;BMP280;54626;45.436;10.942;2023-07-24T12:48:57;99994.63;;;30.91
67829;BMP280;54626;45.436;10.942;2023-07-24T12:51:40;99970.44;;;30.23
67829;BMP280;54626;45.436;10.942;2023-07-24T12:54:07;99944.44;;;30.68
67829;BMP280;54626;45.436;10.942;2023-07-24T13:02:16;99881.47;;;30.52
67829;BMP280;54626;45.436;10.942;2023-07-24T13:04:43;99878.56;;;30.48
67829;BMP280;54626;45.436;10.942;2023-07-24T13:07:09;99871.56;;;30.65
67829;BMP280;54626;45.436;10.942;2023-07-24T13:09:36;99883.13;;;30.87
67829;BMP280;54626;45.436;10.942;2023-07-24T13:12:03;99930.31;;;30.94
67829;BMP280;54626;45.436;10.942;2023-07-24T13:14:29;100004.72;;;31.04
67829;BMP280;54626;45.436;10.942;2023-07-24T13:21:11;100206.88;;;30.40
67829;BMP280;54626;45.436;10.942;2023-07-24T13:23:38;100254.59;;;30.30
67829;BMP280;54626;45.436;10.942;2023-07-24T13:26:04;100284.41;;;30.21
67829;BMP280;54626;45.436;10.942;2023-07-24T13:32:03;100255.00;;;30.11
67829;BMP280;54626;45.436;10.942;2023-07-24T13:34:30;100233.81;;;30.25
67829;BMP280;54626;45.436;10.942;2023-07-24T13:36:57;100211.31;;;30.49
67829;BMP280;54626;45.436;10.942;2023-07-24T13:39:23;100210.59;;;30.51
67829;BMP280;54626;45.436;10.942;2023-07-24T13:41:50;100200.75;;;30.09
67829;BMP280;54626;45.436;10.942;2023-07-24T13:44:20;100185.22;;;29.72
67829;BMP280;54626;45.436;10.942;2023-07-24T13:46:46;100182.75;;;29.53
67829;BMP280;54626;45.436;10.942;2023-07-24T13:49:24;100176.63;;;29.27
67829;BMP280;54626;45.436;10.942;2023-07-24T13:51:51;100153.19;;;28.92
67829;BMP280;54626;45.436;10.942;2023-07-24T13:54:17;100138.19;;;28.89
67829;BMP280;54626;45.436;10.942;2023-07-24T14:30:40;99932.06;;;31.58
67829;BMP280;54626;45.436;10.942;2023-07-24T14:33:07;99921.38;;;31.66
67829;BMP280;54626;45.436;10.942;2023-07-24T14:35:33;99909.22;;;31.78
67829;BMP280;54626;45.436;10.942;2023-07-24T14:38:37;99916.44;;;32.10
67829;BMP280;54626;45.436;10.942;2023-07-24T14:41:03;99917.16;;;32.33
67829;BMP280;54626;45.436;10.942;2023-07-24T14:47:10;99906.09;;;33.42
67829;BMP280;54626;45.436;10.942;2023-07-24T14:49:37;99906.81;;;33.44
67829;BMP280;54626;45.436;10.942;2023-07-24T14:52:06;99904.56;;;33.61
67829;BMP280;54626;45.436;10.942;2023-07-24T14:54:33;99895.91;;;33.70
67829;BMP280;54626;45.436;10.942;2023-07-24T14:57:04;99896.34;;;34.08
67829;BMP280;54626;45.436;10.942;2023-07-24T14:59:50;99909.19;;;34.15
67829;BMP280;54626;45.436;10.942;2023-07-24T15:02:17;99906.47;;;33.96
67829;BMP280;54626;45.436;10.942;2023-07-24T15:05:10;99892.00;;;34.11
67829;BMP280;54626;45.436;10.942;2023-07-24T15:07:36;99885.16;;;33.69
67829;BMP280;54626;45.436;10.942;2023-07-24T15:10:04;99879.41;;;33.69
67829;BMP280;54626;45.436;10.942;2023-07-24T15:15:27;99859.41;;;33.57
67829;BMP280;54626;45.436;10.942;2023-07-24T15:17:55;99856.38;;;33.77
67829;BMP280;54626;45.436;10.942;2023-07-24T15:20:31;99853.16;;;33.19
67829;BMP280;54626;45.436;10.942;2023-07-24T15:28:17;99851.59;;;33.40
67829;BMP280;54626;45.436;10.942;2023-07-24T15:30:47;99845.91;;;33.36
67829;BMP280;54626;45.436;10.942;2023-07-24T15:36:36;99845.78;;;33.52
67829;BMP280;54626;45.436;10.942;2023-07-24T15:42:41;99861.78;;;33.19
67829;BMP280;54626;45.436;10.942;2023-07-24T15:45:08;99863.16;;;33.28
67829;BMP280;54626;45.436;10.942;2023-07-24T15:47:35;99865.44;;;32.98
67829;BMP280;54626;45.436;10.942;2023-07-24T15:55:58;99854.53;;;33.30
67829;BMP280;54626;45.436;10.942;2023-07-24T15:58:46;99857.50;;;33.12
67829;BMP280;54626;45.436;10.942;2023-07-24T16:01:37;99836.72;;;33.14
67829;BMP280;54626;45.436;10.942;2023-07-24T16:06:39;99801.56;;;33.15
67829;BMP280;54626;45.436;10.942;2023-07-24T16:09:06;99790.06;;;33.21
67829;BMP280;54626;45.436;10.942;2023-07-24T16:11:33;99776.50;;;33.08
67829;BMP280;54626;45.436;10.942;2023-07-24T16:17:28;99768.78;;;32.75
67829;BMP280;54626;45.436;10.942;2023-07-24T16:26:08;99738.84;;;32.40
67829;BMP280;54626;45.436;10.942;2023-07-24T16:28:34;99734.59;;;32.31
67829;BMP280;54626;45.436;10.942;2023-07-24T16:33:47;99717.44;;;32.23
67829;BMP280;54626;45.436;10.942;2023-07-24T16:36:15;99700.22;;;32.29
67829;BMP280;54626;45.436;10.942;2023-07-24T16:38:44;99666.63;;;32.08
67829;BMP280;54626;45.436;10.942;2023-07-24T16:43:48;99660.31;;;31.66
67829;BMP280;54626;45.436;10.942;2023-07-24T16:46:15;99662.44;;;31.57
67829;BMP280;54626;45.436;10.942;2023-07-24T16:48:44;99673.88;;;31.32
67829;BMP280;54626;45.436;10.942;2023-07-24T16:51:17;99679.59;;;31.24
67829;BMP280;54626;45.436;10.942;2023-07-24T16:53:57;99674.63;;;31.14
67829;BMP280;54626;45.436;10.942;2023-07-24T16:56:24;99678.88;;;31.05
67829;BMP280;54626;45.436;10.942;2023-07-24T16:58:50;99694.59;;;31.12
67829;BMP280;54626;45.436;10.942;2023-07-24T17:01:17;99686.03;;;30.99
67829;BMP280;54626;45.436;10.942;2023-07-24T17:03:43;99701.75;;;31.15
67829;BMP280;54626;45.436;10.942;2023-07-24T17:06:16;99708.88;;;30.91
67829;BMP280;54626;45.436;10.942;2023-07-24T17:08:42;99705.97;;;30.81
67829;BMP280;54626;45.436;10.942;2023-07-24T17:11:09;99705.16;;;30.60
67829;BMP280;54626;45.436;10.942;2023-07-24T17:13:35;99710.03;;;30.38
67829;BMP280;54626;45.436;10.942;2023-07-24T17:16:27;99723.56;;;30.26
67829;BMP280;54626;45.436;10.942;2023-07-24T17:18:56;99716.94;;;30.02
67829;BMP280;54626;45.436;10.942;2023-07-24T17:21:23;99716.97;;;30.06
67829;BMP280;54626;45.436;10.942;2023-07-24T17:23:55;99726.94;;;30.03
67829;BMP280;54626;45.436;10.942;2023-07-24T17:26:28;99722.66;;;30.02
67829;BMP280;54626;45.436;10.942;2023-07-24T17:28:59;99715.53;;;30.03
67829;BMP280;54626;45.436;10.942;2023-07-24T17:31:30;99709.72;;;29.87
67829;BMP280;54626;45.436;10.942;2023-07-24T17:33:57;99704.75;;;29.89
67829;BMP280;54626;45.436;10.942;2023-07-24T17:36:24;99714.66;;;29.78
67829;BMP280;54626;45.436;10.942;2023-07-24T17:38:51;99710.38;;;29.77
67829;BMP280;54626;45.436;10.942;2023-07-24T17:41:21;99711.75;;;29.70
67829;BMP280;54626;45.436;10.942;2023-07-24T17:46:16;99712.38;;;29.63
67829;BMP280;54626;45.436;10.942;2023-07-24T17:48:43;99724.56;;;29.68
67829;BMP280;54626;45.436;10.942;2023-07-24T17:53:39;99708.78;;;29.57
67829;BMP280;54626;45.436;10.942;2023-07-24T18:00:26;99700.16;;;29.49
67829;BMP280;54626;45.436;10.942;2023-07-24T18:02:53;99694.38;;;29.41
67829;BMP280;54626;45.436;10.942;2023-07-24T18:07:54;99686.31;;;29.18
67829;BMP280;54626;45.436;10.942;2023-07-24T18:10:21;99675.44;;;29.00
67829;BMP280;54626;45.436;10.942;2023-07-24T18:12:51;99674.53;;;28.84
67829;BMP280;54626;45.436;10.942;2023-07-24T18:24:40;99662.91;;;28.64
67829;BMP280;54626;45.436;10.942;2023-07-24T18:27:07;99663.63;;;28.63
67829;BMP280;54626;45.436;10.942;2023-07-24T18:29:48;99660.78;;;28.65
67829;BMP280;54626;45.436;10.942;2023-07-24T18:32:14;99647.25;;;28.63
67829;BMP280;54626;45.436;10.942;2023-07-24T18:37:49;99640.16;;;28.66
67829;BMP280;54626;45.436;10.942;2023-07-24T18:40:16;99640.19;;;28.70
67829;BMP280;54626;45.436;10.942;2023-07-24T18:43:03;99626.69;;;28.69